Washington, District of Columbia
Traffic Map
Current Weather Conditions
Washington, District of Columbia
Broken Clouds
Broken Clouds
86°
Feels Like: 91°
Wind Chill: 86° Ceiling: 4000
Heat Index: 91° Visibility: 10mi
Dew Point: 71° Wind: 10mph
Humidity: 61% Direction: 190° (S)
Pressure: 29.92in Gusts: 0mph
Raw Report DataKDCA 011752Z 19009KT 10SM BKN040 BKN055 BKN250 30/22 A2992 RMK AO2 SLP132 60000 T03000217 10300 20233 58013
Traffic Incident Summary
Active as of:
Severity:
Category:
InformationThere was an issue retrieving the traffic information for this location. Please try a different location or try again shortly.
Advertisements
Track Severe Weather on mobile